Time;durP1;ratioP1;P1;durP2;ratioP2;P2;SDS_P1;SDS_P2;PMS_P1;PMS_P2;Temp;Humidity;BMP_temperature;BMP_pressure;BME280_temperature;BME280_humidity;BME280_pressure;Samples;Min_cycle;Max_cycle;Signal;HPM_P1;HPM_P2
2022/01/28 00:00:32;;;;;;;17.10;2.25;;;;;;;8.79;51.25;100938.16;4924671;28;96731;-77
2022/01/28 00:03:05;;;;;;;18.88;2.30;;;;;;;8.96;50.99;100941.22;4930282;28;98576;-77
2022/01/28 00:05:32;;;;;;;19.48;2.90;;;;;;;8.53;51.11;100928.25;4927291;28;98980;-77
2022/01/28 00:08:00;;;;;;;16.40;2.63;;;;;;;8.58;51.05;100938.69;4932177;28;99267;-77
2022/01/28 00:10:27;;;;;;;20.95;2.75;;;;;;;8.10;53.13;100951.16;4923285;28;96898;-78
2022/01/28 00:13:11;;;;;;;18.00;2.17;;;;;;;8.12;52.70;100937.09;4924530;28;96861;-77
2022/01/28 00:15:39;;;;;;;20.67;2.63;;;;;;;8.76;51.23;100962.81;4927866;28;98483;-78
2022/01/28 00:36:29;;;;;;;17.50;2.22;;;;;;;9.20;49.40;100964.28;4935628;28;96888;-76
2022/01/28 00:40:32;;;;;;;20.27;2.45;;;;;;;8.92;51.03;100960.66;4925126;28;100783;-76
2022/01/28 00:42:58;;;;;;;18.75;3.00;;;;;;;9.20;50.71;100964.28;4929242;28;98961;-76
2022/01/28 00:45:25;;;;;;;18.60;3.10;;;;;;;9.09;50.13;100969.00;4925586;28;98820;-76
2022/01/28 00:47:52;;;;;;;18.33;2.80;;;;;;;8.99;50.27;100961.38;4928008;28;99295;-75
2022/01/28 00:50:18;;;;;;;20.98;3.38;;;;;;;9.27;50.19;100975.53;4924207;28;97496;-75
2022/01/28 00:52:45;;;;;;;12.48;2.58;;;;;;;9.09;50.25;100994.47;4929241;28;97094;-75
2022/01/28 00:55:12;;;;;;;24.27;2.55;;;;;;;9.05;50.52;100980.53;4927029;28;96842;-75
2022/01/28 00:57:39;;;;;;;21.27;3.13;;;;;;;9.22;49.26;100989.75;4931271;28;99055;-76
2022/01/28 01:00:08;;;;;;;25.25;3.20;;;;;;;9.19;50.08;101002.09;4927217;28;99578;-77
2022/01/28 01:02:34;;;;;;;27.42;2.88;;;;;;;8.58;51.63;101004.53;4929400;28;96875;-75
2022/01/28 01:05:00;;;;;;;24.98;3.17;;;;;;;8.82;51.74;101001.31;4927511;28;96867;-76
2022/01/28 01:07:27;;;;;;;23.02;2.67;;;;;;;9.03;51.08;101003.41;4926785;28;100129;-76
2022/01/28 01:09:53;;;;;;;30.75;3.53;;;;;;;9.22;50.36;101019.63;4924784;28;99542;-77
2022/01/28 01:12:22;;;;;;;20.60;3.10;;;;;;;8.77;51.22;101003.19;4928593;28;96793;-76
2022/01/28 01:14:50;;;;;;;19.77;2.95;;;;;;;8.79;51.19;101025.09;4926134;28;96850;-76
2022/01/28 01:17:27;;;;;;;17.30;2.83;;;;;;;8.78;51.65;101028.63;4930652;28;98983;-75
2022/01/28 01:20:06;;;;;;;23.83;2.85;;;;;;;8.79;51.11;101038.28;4927743;28;99011;-75
2022/01/28 01:22:37;;;;;;;29.10;3.03;;;;;;;8.86;51.15;101045.09;4949538;28;96725;-75
2022/01/28 01:25:14;;;;;;;22.50;3.17;;;;;;;8.47;52.01;101043.41;4949476;28;96756;-76
2022/01/28 01:27:40;;;;;;;23.67;3.85;;;;;;;8.42;51.92;101040.00;4939080;28;97756;-76
2022/01/28 01:30:10;;;;;;;17.88;2.85;;;;;;;8.66;51.61;101047.38;4926340;28;99211;-76
2022/01/28 01:32:38;;;;;;;23.90;2.90;;;;;;;8.65;52.00;101059.69;4927645;28;97634;-76
2022/01/28 01:35:05;;;;;;;25.00;2.88;;;;;;;8.65;51.26;101067.56;4930990;28;97019;-73
2022/01/28 01:37:31;;;;;;;22.85;2.70;;;;;;;8.77;51.57;101059.38;4923241;28;99773;-77
2022/01/28 01:39:58;;;;;;;17.42;2.55;;;;;;;8.67;51.54;101073.66;4927069;28;99210;-77
2022/01/28 01:42:32;;;;;;;24.80;3.45;;;;;;;8.79;50.63;101068.09;4926755;28;97090;-77
2022/01/28 01:45:47;;;;;;;23.15;3.38;;;;;;;8.34;50.64;101062.09;4942048;28;96773;-78
2022/01/28 01:53:42;;;;;;;18.20;2.30;;;;;;;7.98;53.20;101076.84;4928307;28;96867;-77
2022/01/28 01:56:09;;;;;;;21.63;2.90;;;;;;;8.75;52.22;101081.41;4927718;28;96781;-78
2022/01/28 01:58:35;;;;;;;29.88;3.20;;;;;;;8.21;53.06;101093.94;4930023;28;98298;-77
2022/01/28 02:01:02;;;;;;;22.35;2.78;;;;;;;8.39;53.52;101088.34;4928635;28;99228;-77
2022/01/28 02:03:30;;;;;;;22.60;3.33;;;;;;;8.12;53.36;101102.91;4930762;28;96790;-77
2022/01/28 02:05:58;;;;;;;25.55;2.65;;;;;;;8.56;53.06;101109.03;4925896;28;97589;-77
2022/01/28 02:08:26;;;;;;;18.05;2.80;;;;;;;9.00;51.44;101097.50;4932026;28;99314;-77
2022/01/28 02:10:56;;;;;;;24.27;3.30;;;;;;;8.43;51.46;101110.19;4924425;28;99127;-76
2022/01/28 02:13:23;;;;;;;23.83;3.45;;;;;;;8.46;52.75;101125.97;4930781;28;98169;-76
2022/01/28 02:15:49;;;;;;;26.73;3.30;;;;;;;8.17;53.04;101111.56;4928849;28;96913;-76
2022/01/28 02:18:16;;;;;;;19.67;2.40;;;;;;;8.27;52.23;101115.75;4929889;28;98965;-76
2022/01/28 02:20:48;;;;;;;19.33;2.75;;;;;;;8.25;52.03;101116.69;4930910;28;99161;-77
2022/01/28 02:23:14;;;;;;;22.52;3.40;;;;;;;8.22;51.40;101157.09;4925822;28;96809;-76
2022/01/28 02:25:41;;;;;;;25.98;2.88;;;;;;;8.29;51.74;101131.50;4929593;28;97843;-77
2022/01/28 02:28:11;;;;;;;17.42;2.97;;;;;;;8.52;51.49;101136.38;4927928;28;99026;-77
2022/01/28 02:30:38;;;;;;;24.13;3.30;;;;;;;8.77;50.89;101134.94;4925570;28;98871;-78
2022/01/28 02:33:11;;;;;;;25.10;3.72;;;;;;;8.78;50.09;101140.19;4924790;28;98904;-77
2022/01/28 02:35:39;;;;;;;23.27;2.92;;;;;;;8.61;50.86;101130.88;4930517;28;96859;-77
2022/01/28 02:38:07;;;;;;;21.75;2.75;;;;;;;8.68;51.16;101149.16;4931632;28;99556;-77
2022/01/28 02:40:34;;;;;;;23.63;2.92;;;;;;;9.07;49.75;101168.50;4932500;28;99223;-76
2022/01/28 02:43:05;;;;;;;24.00;3.35;;;;;;;8.78;50.96;101157.75;4930549;28;97312;-77
2022/01/28 02:45:34;;;;;;;30.30;3.40;;;;;;;9.12;50.24;101156.06;4928674;28;96860;-78
2022/01/28 02:48:04;;;;;;;25.20;3.50;;;;;;;8.51;51.36;101160.97;4925182;28;98899;-77
2022/01/28 02:50:38;;;;;;;19.42;3.60;;;;;;;8.42;52.31;101167.28;4927072;28;100163;-77
2022/01/28 02:53:08;;;;;;;21.73;3.17;;;;;;;8.57;52.30;101185.41;4931037;28;96796;-78
2022/01/28 02:55:40;;;;;;;32.80;4.38;;;;;;;8.83;52.63;101184.88;4929671;28;98342;-77
2022/01/28 02:58:19;;;;;;;20.38;3.17;;;;;;;8.61;53.67;101173.03;4929652;28;99369;-77
2022/01/28 03:00:47;;;;;;;27.58;3.53;;;;;;;8.25;54.59;101186.00;4925723;28;99309;-77
2022/01/28 03:03:14;;;;;;;22.77;3.88;;;;;;;8.35;53.31;101184.09;4931081;28;96988;-77
2022/01/28 03:05:41;;;;;;;28.50;3.58;;;;;;;8.72;52.72;101193.00;4925020;28;96800;-77
2022/01/28 03:08:08;;;;;;;30.70;3.03;;;;;;;8.78;52.00;101198.16;4922572;28;98854;-76
2022/01/28 03:11:01;;;;;;;23.73;2.88;;;;;;;8.98;52.14;101205.63;4930366;28;99318;-76
2022/01/28 03:13:45;;;;;;;22.65;3.60;;;;;;;9.15;50.76;101200.84;4940255;28;96846;-76
2022/01/28 03:16:13;;;;;;;19.67;2.80;;;;;;;8.66;51.29;101205.44;4949114;28;96950;-76
2022/01/28 03:18:49;;;;;;;27.05;3.35;;;;;;;9.08;49.91;101206.28;4934601;28;98808;-76
2022/01/28 03:21:27;;;;;;;30.77;3.30;;;;;;;9.15;50.06;101208.75;4924173;28;99041;-77
2022/01/28 03:23:53;;;;;;;21.75;3.17;;;;;;;9.25;49.74;101214.69;4927959;28;96917;-77
2022/01/28 03:26:23;;;;;;;22.00;3.53;;;;;;;9.09;49.32;101213.28;4932405;28;97039;-77
2022/01/28 03:28:49;;;;;;;18.95;2.67;;;;;;;8.59;50.72;101217.00;4934027;28;99379;-77
2022/01/28 03:31:16;;;;;;;25.30;3.05;;;;;;;8.54;51.19;101224.09;4932616;28;99179;-76
2022/01/28 03:33:42;;;;;;;20.75;3.30;;;;;;;9.07;49.95;101229.13;4932110;28;96780;-77
2022/01/28 03:36:10;;;;;;;24.52;3.55;;;;;;;8.83;49.83;101236.69;4932346;28;96827;-78
2022/01/28 03:38:37;;;;;;;24.35;3.33;;;;;;;8.99;50.04;101238.97;4930009;28;101155;-77
2022/01/28 03:41:04;;;;;;;23.48;3.28;;;;;;;9.11;49.73;101249.28;4925827;28;98742;-77
2022/01/28 03:43:32;;;;;;;21.65;3.25;;;;;;;9.01;49.49;101239.81;4927789;28;96878;-76
2022/01/28 03:45:58;;;;;;;27.73;3.50;;;;;;;9.12;49.89;101255.41;4930513;28;97189;-76
2022/01/28 03:48:24;;;;;;;22.83;3.38;;;;;;;8.94;49.63;101250.50;4927723;28;99844;-76
2022/01/28 03:50:51;;;;;;;22.83;2.53;;;;;;;8.80;50.16;101258.69;4924546;28;99128;-76
2022/01/28 03:53:18;;;;;;;28.65;3.60;;;;;;;8.64;50.08;101247.63;4922511;28;96780;-76
2022/01/28 03:55:45;;;;;;;24.58;3.40;;;;;;;8.29;51.00;101252.63;4931942;28;96976;-76
2022/01/28 03:58:11;;;;;;;28.83;4.38;;;;;;;8.63;50.88;101253.78;4930291;28;98900;-76
2022/01/28 04:00:39;;;;;;;17.75;2.50;;;;;;;8.49;50.36;101276.00;4930995;28;99164;-75
2022/01/28 04:03:10;;;;;;;24.80;3.25;;;;;;;8.53;50.15;101275.94;4929129;28;97511;-75
2022/01/28 04:11:24;;;;;;;23.25;3.03;;;;;;;8.49;50.38;101270.72;4949878;28;96837;-75
2022/01/28 04:11:32;;;;;;;15.13;2.40;;;;;;;8.71;49.85;101295.78;4905912;28;97395;-77
2022/01/28 04:14:09;;;;;;;23.80;2.70;;;;;;;8.54;50.52;101295.22;4923609;28;97145;-77
2022/01/28 04:19:17;;;;;;;23.92;3.35;;;;;;;8.88;48.64;101283.13;4927982;28;97911;-78
2022/01/28 04:21:44;;;;;;;13.30;2.30;;;;;;;8.83;48.92;101306.09;4931150;28;97796;-77
2022/01/28 04:24:10;;;;;;;21.10;3.20;;;;;;;8.99;47.94;101317.22;4926226;28;96973;-77
2022/01/28 04:26:36;;;;;;;17.13;2.42;;;;;;;9.28;47.52;101314.81;4932981;28;97218;-77
2022/01/28 04:29:03;;;;;;;20.40;2.17;;;;;;;8.71;49.17;101332.69;4927382;28;99180;-77
2022/01/28 04:31:29;;;;;;;24.08;3.05;;;;;;;8.78;48.21;101326.41;4932703;28;99060;-77
2022/01/28 04:33:59;;;;;;;16.85;2.95;;;;;;;9.28;46.86;101325.38;4918550;28;96951;-77
2022/01/28 04:36:29;;;;;;;19.90;2.90;;;;;;;9.27;46.74;101333.31;4936378;28;96888;-77
2022/01/28 04:39:01;;;;;;;27.27;3.25;;;;;;;8.88;47.56;101337.63;4942858;28;99348;-77
2022/01/28 04:41:35;;;;;;;21.90;2.90;;;;;;;8.97;48.16;101345.34;4955352;28;98714;-75
2022/01/28 04:44:08;;;;;;;24.40;3.53;;;;;;;9.04;48.03;101353.13;4940574;28;98382;-75
2022/01/28 04:46:42;;;;;;;21.45;3.33;;;;;;;9.01;47.89;101354.94;4929577;28;96925;-75
2022/01/28 04:49:14;;;;;;;26.48;3.55;;;;;;;9.41;46.70;101353.22;4924456;28;99037;-77
2022/01/28 04:51:54;;;;;;;19.48;2.90;;;;;;;9.09;46.94;101351.25;4928387;28;98687;-75
2022/01/28 04:54:49;;;;;;;21.48;2.67;;;;;;;8.45;47.99;101366.50;4925228;28;96853;-75
2022/01/28 04:57:21;;;;;;;24.23;2.92;;;;;;;8.41;47.81;101355.13;4930410;28;97343;-76
2022/01/28 05:00:01;;;;;;;31.23;3.65;;;;;;;8.33;48.43;101364.97;4923999;28;99376;-75
2022/01/28 05:02:49;;;;;;;27.40;3.42;;;;;;;8.78;47.82;101364.16;4922847;28;98827;-75
2022/01/28 05:05:49;;;;;;;25.25;2.45;;;;;;;8.78;46.92;101366.78;4929217;28;96835;-76
2022/01/28 05:08:41;;;;;;;26.98;3.38;;;;;;;9.23;46.46;101376.47;4924791;28;97100;-75
2022/01/28 05:11:31;;;;;;;16.20;2.17;;;;;;;9.12;46.99;101382.81;4925084;28;100847;-75
2022/01/28 05:17:02;;;;;;;21.50;3.30;;;;;;;8.92;48.26;101403.44;4924538;28;98038;-74
2022/01/28 05:25:42;;;;;;;24.02;3.22;;;;;;;8.74;47.64;101411.66;4892196;28;96961;-78
2022/01/28 05:28:04;;;;;;;18.75;2.88;;;;;;;9.31;46.34;101419.41;4925442;28;96848;-77
2022/01/28 05:30:30;;;;;;;28.10;2.83;;;;;;;9.18;47.07;101432.81;4928231;28;96889;-76
2022/01/28 05:32:56;;;;;;;25.33;3.33;;;;;;;9.02;47.57;101434.00;4928549;28;99340;-77
2022/01/28 05:35:23;;;;;;;21.25;2.30;;;;;;;9.34;46.48;101432.50;4931596;28;99632;-77
2022/01/28 05:37:51;;;;;;;20.17;2.60;;;;;;;9.44;46.17;101436.72;4925701;28;96821;-78
2022/01/28 05:40:17;;;;;;;21.63;2.90;;;;;;;9.16;46.09;101444.28;4929476;28;97398;-78
2022/01/28 05:42:44;;;;;;;26.45;3.70;;;;;;;8.98;46.69;101449.91;4930998;28;99283;-77
2022/01/28 05:45:10;;;;;;;22.05;2.35;;;;;;;8.99;46.29;101451.66;4926632;28;98985;-77
2022/01/28 05:47:37;;;;;;;23.65;3.08;;;;;;;8.72;47.82;101460.88;4927663;28;96918;-78
2022/01/28 05:50:04;;;;;;;15.65;2.70;;;;;;;9.09;46.22;101458.47;4924604;28;96945;-79
2022/01/28 05:52:31;;;;;;;26.70;2.92;;;;;;;9.20;46.49;101465.28;4932100;28;100539;-78
2022/01/28 05:55:00;;;;;;;22.83;2.70;;;;;;;8.80;46.70;101472.16;4930916;28;98582;-79
2022/01/28 05:57:26;;;;;;;31.05;3.45;;;;;;;9.11;46.60;101475.16;4929550;28;98410;-79
2022/01/28 05:59:52;;;;;;;24.50;3.22;;;;;;;9.03;46.74;101483.19;4927353;28;96973;-78
2022/01/28 06:02:19;;;;;;;22.77;3.00;;;;;;;9.42;45.73;101486.00;4939378;28;99122;-78
2022/01/28 06:04:45;;;;;;;34.38;5.10;;;;;;;9.68;45.27;101502.19;4948086;28;97706;-79
2022/01/28 06:07:12;;;;;;;25.38;3.35;;;;;;;9.70;45.43;101503.03;4954980;28;96917;-76
2022/01/28 06:09:38;;;;;;;21.90;3.47;;;;;;;9.77;45.76;101506.41;4936924;28;98743;-77
2022/01/28 06:12:07;;;;;;;25.05;3.47;;;;;;;9.09;46.40;101520.00;4930320;28;98158;-77
2022/01/28 06:14:34;;;;;;;23.48;2.72;;;;;;;9.78;45.59;101524.00;4926868;28;99898;-77
2022/01/28 06:17:00;;;;;;;28.38;3.60;;;;;;;9.51;45.82;101535.97;4931576;28;97666;-77
2022/01/28 06:19:27;;;;;;;35.15;3.67;;;;;;;9.75;45.90;101537.25;4930693;28;96823;-77
2022/01/28 06:21:53;;;;;;;31.10;3.80;;;;;;;9.34;47.03;101556.47;4935507;28;99040;-77
2022/01/28 06:24:20;;;;;;;23.67;3.42;;;;;;;9.14;46.81;101552.41;4924707;28;99068;-76
2022/01/28 06:26:47;;;;;;;26.42;3.70;;;;;;;9.13;47.31;101570.88;4929160;28;97836;-77
2022/01/28 06:29:15;;;;;;;28.38;2.70;;;;;;;9.36;46.90;101570.50;4927956;28;97162;-75
2022/01/28 06:31:41;;;;;;;30.45;3.13;;;;;;;9.60;46.14;101581.50;4927847;28;99251;-78
2022/01/28 06:34:08;;;;;;;23.45;3.08;;;;;;;9.41;46.35;101568.66;4931841;28;97989;-77
2022/01/28 06:36:35;;;;;;;29.20;3.70;;;;;;;9.51;46.31;101584.31;4929247;28;97381;-76
2022/01/28 06:39:02;;;;;;;32.70;4.07;;;;;;;9.78;45.97;101585.53;4925537;28;96881;-78
2022/01/28 06:41:30;;;;;;;29.70;3.95;;;;;;;9.54;45.70;101601.84;4930239;28;98160;-76
2022/01/28 06:43:57;;;;;;;25.92;4.03;;;;;;;9.20;46.47;101612.09;4931293;28;98575;-77
2022/01/28 06:46:26;;;;;;;27.23;4.10;;;;;;;9.16;47.20;101610.41;4931869;28;97026;-77
2022/01/28 06:48:52;;;;;;;27.75;3.08;;;;;;;9.63;46.09;101624.56;4931738;28;97311;-78
2022/01/28 06:51:19;;;;;;;30.10;3.40;;;;;;;8.84;46.79;101626.72;4929744;28;99264;-78
2022/01/28 06:53:45;;;;;;;34.88;3.45;;;;;;;9.38;47.06;101632.91;4926943;28;99081;-77
2022/01/28 06:56:11;;;;;;;27.83;3.65;;;;;;;9.69;46.11;101638.53;4929968;28;96856;-77
2022/01/28 06:58:38;;;;;;;25.40;3.67;;;;;;;9.81;45.28;101640.06;4930764;28;96967;-78
2022/01/28 07:01:04;;;;;;;33.72;3.95;;;;;;;9.21;45.10;101645.47;4928660;28;98771;-78
2022/01/28 07:03:32;;;;;;;19.33;2.60;;;;;;;8.42;48.40;101661.50;4932553;28;98805;-79
2022/01/28 07:05:58;;;;;;;19.08;2.83;;;;;;;8.40;47.90;101651.88;4928287;28;97201;-77
2022/01/28 07:08:27;;;;;;;27.20;3.53;;;;;;;9.01;46.92;101661.59;4926838;28;97455;-77
2022/01/28 07:10:54;;;;;;;28.38;3.10;;;;;;;9.38;45.89;101663.69;4925766;28;98578;-77
2022/01/28 07:13:20;;;;;;;24.33;3.30;;;;;;;9.25;45.75;101652.47;4935778;28;99219;-78
2022/01/28 07:15:48;;;;;;;31.35;3.80;;;;;;;8.92;45.80;101674.94;4935794;28;96879;-79
2022/01/28 07:18:14;;;;;;;27.15;3.45;;;;;;;9.07;46.17;101676.44;4930472;28;97634;-78
2022/01/28 07:20:42;;;;;;;27.02;3.65;;;;;;;8.83;46.59;101677.69;4929516;28;98951;-79
2022/01/28 07:23:08;;;;;;;30.90;3.78;;;;;;;9.26;45.79;101682.31;4934089;28;99753;-79
2022/01/28 07:25:35;;;;;;;24.08;3.70;;;;;;;9.05;45.56;101691.44;4934905;28;97386;-78
2022/01/28 07:28:01;;;;;;;21.05;3.67;;;;;;;9.08;45.84;101708.06;4945261;28;96662;-79
2022/01/28 07:30:27;;;;;;;29.95;4.50;;;;;;;8.73;46.80;101699.75;4952032;28;99757;-78
2022/01/28 07:32:54;;;;;;;21.15;3.55;;;;;;;8.65;47.00;101707.78;4945773;28;98466;-79
2022/01/28 07:35:21;;;;;;;23.85;3.22;;;;;;;8.75;46.72;101708.53;4933391;28;96756;-78
2022/01/28 07:37:49;;;;;;;25.70;3.50;;;;;;;9.10;45.29;101714.22;4939936;28;96773;-83
2022/01/28 07:40:16;;;;;;;23.17;3.13;;;;;;;9.25;45.47;101720.16;4932805;28;98950;-80
2022/01/28 07:42:43;;;;;;;27.08;4.75;;;;;;;8.76;46.43;101739.25;4956315;22;99222;-73
2022/01/28 07:45:13;;;;;;;34.63;4.20;;;;;;;8.70;46.77;101748.13;4968948;28;97251;-74
2022/01/28 07:47:40;;;;;;;26.55;4.40;;;;;;;8.92;46.00;101750.50;4973087;28;97699;-74
2022/01/28 07:50:08;;;;;;;29.90;4.45;;;;;;;9.22;45.59;101752.72;4972812;28;99577;-74
2022/01/28 07:52:35;;;;;;;35.03;3.63;;;;;;;8.74;46.84;101762.13;4973351;28;98940;-74
2022/01/28 07:55:03;;;;;;;27.08;3.70;;;;;;;8.65;46.91;101767.50;4967407;28;98621;-76
2022/01/28 07:57:30;;;;;;;21.92;3.53;;;;;;;9.25;45.81;101768.50;4969356;28;98777;-74
2022/01/28 07:59:56;;;;;;;27.45;4.60;;;;;;;9.14;45.12;101771.28;4967516;28;99415;-74
2022/01/28 08:02:23;;;;;;;31.50;4.40;;;;;;;8.24;46.98;101774.03;4969100;28;99298;-73
2022/01/28 08:04:49;;;;;;;29.95;4.43;;;;;;;8.04;47.83;101790.91;4966995;28;97274;-72
2022/01/28 08:07:15;;;;;;;31.30;3.92;;;;;;;8.40;46.78;101782.72;4970664;28;98081;-73
2022/01/28 08:09:42;;;;;;;29.77;4.30;;;;;;;8.34;47.81;101807.31;4964963;28;99114;-72
2022/01/28 08:12:10;;;;;;;28.17;4.30;;;;;;;8.54;46.60;101799.22;4964588;28;98625;-73
2022/01/28 08:14:36;;;;;;;29.42;4.60;;;;;;;8.58;46.94;101818.53;4969009;28;99031;-73
2022/01/28 08:17:03;;;;;;;27.40;4.03;;;;;;;8.46;47.08;101822.16;4966748;28;96814;-74
2022/01/28 08:19:29;;;;;;;37.78;5.25;;;;;;;8.88;46.49;101826.09;4968628;28;99163;-73
2022/01/28 08:21:56;;;;;;;26.30;3.72;;;;;;;8.93;46.42;101829.53;4967619;28;100757;-73
2022/01/28 08:24:22;;;;;;;39.20;4.40;;;;;;;9.07;45.67;101837.28;4967833;28;98957;-73
2022/01/28 08:26:49;;;;;;;32.33;5.05;;;;;;;8.72;46.14;101829.78;4964360;28;96922;-73
2022/01/28 08:29:17;;;;;;;35.50;5.15;;;;;;;8.90;45.72;101844.53;4969246;28;99501;-75
2022/01/28 08:31:44;;;;;;;29.77;4.93;;;;;;;9.44;45.29;101838.56;4967534;28;98906;-73
2022/01/28 08:34:10;;;;;;;26.77;4.43;;;;;;;9.43;44.74;101841.22;4965739;28;96937;-73
2022/01/28 08:36:36;;;;;;;34.08;4.88;;;;;;;9.30;44.60;101855.47;4967296;28;96785;-73
2022/01/28 08:39:05;;;;;;;34.28;6.32;;;;;;;9.09;44.56;101860.13;4961802;28;99510;-73
2022/01/28 08:41:32;;;;;;;30.15;5.55;;;;;;;9.11;45.16;101866.25;4967888;28;99642;-72
2022/01/28 08:43:59;;;;;;;33.65;5.82;;;;;;;9.45;44.53;101868.47;4968385;28;96879;-73
2022/01/28 08:46:27;;;;;;;34.55;4.43;;;;;;;9.12;45.17;101865.34;4965303;28;96800;-73
2022/01/28 08:48:53;;;;;;;28.40;4.20;;;;;;;8.60;45.56;101872.09;4968162;28;98926;-73
2022/01/28 08:51:19;;;;;;;29.65;4.20;;;;;;;9.01;45.41;101871.63;4962601;28;98020;-72
2022/01/28 08:53:46;;;;;;;30.75;4.97;;;;;;;9.41;44.71;101891.38;4966479;28;96906;-73
2022/01/28 08:56:12;;;;;;;26.80;5.00;;;;;;;9.12;45.01;101888.22;4968648;28;96848;-72
2022/01/28 08:58:38;;;;;;;26.20;4.30;;;;;;;9.04;44.37;101884.78;4966580;28;99391;-72
2022/01/28 09:01:05;;;;;;;40.58;5.40;;;;;;;9.20;44.75;101896.91;4967615;28;98906;-73
2022/01/28 09:03:33;;;;;;;30.23;4.90;;;;;;;9.24;44.48;101900.38;4954250;28;97799;-73
2022/01/28 09:06:00;;;;;;;27.40;4.00;;;;;;;9.21;44.63;101901.28;4964905;28;96893;-73
2022/01/28 09:08:26;;;;;;;28.23;4.32;;;;;;;9.27;44.48;101922.31;4968794;28;99078;-73
2022/01/28 09:11:07;;;;;;;24.50;4.10;;;;;;;9.29;44.31;101904.72;4966121;28;97797;-72
2022/01/28 09:13:38;;;;;;;25.50;3.60;;;;;;;8.46;46.01;101919.63;4972929;28;96947;-73
2022/01/28 09:16:05;;;;;;;34.42;4.68;;;;;;;9.09;45.19;101931.31;4972682;28;97299;-72
2022/01/28 09:18:32;;;;;;;36.45;5.32;;;;;;;9.30;44.54;101924.94;4965757;28;99338;-73
2022/01/28 09:20:59;;;;;;;34.90;4.35;;;;;;;9.69;43.13;101923.56;4969290;28;99240;-73
2022/01/28 09:23:25;;;;;;;39.38;5.30;;;;;;;8.85;43.72;101928.94;4972923;28;96950;-71
2022/01/28 09:25:52;;;;;;;26.55;4.35;;;;;;;9.10;44.36;101935.69;4963876;28;97712;-72
2022/01/28 09:28:18;;;;;;;30.92;3.53;;;;;;;9.11;44.05;101937.44;4970560;28;99263;-72
2022/01/28 09:30:45;;;;;;;24.98;4.10;;;;;;;9.04;44.52;101933.13;4966404;28;99102;-72
2022/01/28 09:33:11;;;;;;;23.83;4.05;;;;;;;9.46;43.62;101946.69;4966088;28;96780;-71
2022/01/28 09:35:41;;;;;;;41.03;5.28;;;;;;;9.24;44.74;101948.75;4968930;28;97003;-74
2022/01/28 09:38:08;;;;;;;33.67;3.85;;;;;;;9.22;43.73;101939.97;4968403;28;99306;-75
2022/01/28 09:40:35;;;;;;;35.28;5.07;;;;;;;9.30;44.24;101942.50;4965316;28;99455;-72
2022/01/28 09:43:03;;;;;;;28.25;3.70;;;;;;;9.40;43.49;101944.13;4966134;28;98544;-72
2022/01/28 09:45:29;;;;;;;25.20;3.67;;;;;;;9.67;43.29;101962.28;4963992;28;98602;-73
2022/01/28 09:47:57;;;;;;;22.67;3.47;;;;;;;9.70;42.77;101967.53;4966234;28;98338;-75
2022/01/28 09:50:24;;;;;;;25.45;3.50;;;;;;;10.35;42.27;101984.28;4967123;28;99312;-75
2022/01/28 09:52:53;;;;;;;29.00;4.30;;;;;;;10.42;41.25;101985.06;4963149;28;96781;-75
2022/01/28 09:55:21;;;;;;;23.38;4.20;;;;;;;9.64;42.63;102008.97;4968904;28;96873;-74
2022/01/28 09:57:52;;;;;;;33.08;4.82;;;;;;;10.30;42.14;102002.84;4965856;28;102182;-74
2022/01/28 10:00:21;;;;;;;31.50;5.07;;;;;;;9.85;42.12;102006.03;4970829;28;99639;-75
2022/01/28 10:02:49;;;;;;;29.17;4.57;;;;;;;9.96;41.50;102020.00;4965073;28;97932;-75
2022/01/28 10:05:22;;;;;;;26.33;3.97;;;;;;;9.85;42.46;102020.13;4968388;28;97404;-75
2022/01/28 10:08:08;;;;;;;32.70;5.28;;;;;;;9.73;42.51;102025.56;4967292;28;98308;-74
2022/01/28 10:10:51;;;;;;;25.85;3.97;;;;;;;9.51;43.58;102039.91;4965648;28;99309;-73
2022/01/28 10:13:21;;;;;;;26.80;3.72;;;;;;;9.94;42.77;102046.41;4968276;28;97728;-73
2022/01/28 10:16:07;;;;;;;31.75;4.20;;;;;;;9.97;42.80;102038.47;4965661;28;98220;-73
2022/01/28 10:18:42;;;;;;;21.95;3.05;;;;;;;10.32;42.10;102059.16;4962020;28;101692;-75
2022/01/28 10:21:31;;;;;;;30.63;4.00;;;;;;;10.20;41.71;102054.03;4967397;28;98082;-75
2022/01/28 10:24:02;;;;;;;25.17;4.20;;;;;;;10.19;42.77;102061.97;4962006;28;97654;-73
2022/01/28 10:26:35;;;;;;;37.45;4.80;;;;;;;10.30;41.91;102066.25;4968964;28;97011;-73
2022/01/28 10:29:04;;;;;;;25.60;3.55;;;;;;;10.20;41.95;102051.41;4964706;28;99036;-74
2022/01/28 10:31:43;;;;;;;24.60;3.53;;;;;;;10.69;40.74;102056.88;4968762;28;99752;-73
2022/01/28 10:34:15;;;;;;;25.63;3.15;;;;;;;10.74;40.45;102056.81;4965897;28;97109;-75
2022/01/28 10:36:41;;;;;;;27.05;4.15;;;;;;;11.93;38.43;102056.44;4967958;28;96958;-77
2022/01/28 10:39:16;;;;;;;22.05;3.95;;;;;;;11.50;39.83;102066.94;4975176;28;99841;-77
2022/01/28 10:41:59;;;;;;;26.25;3.90;;;;;;;11.44;39.31;102072.34;4972472;28;98803;-76
2022/01/28 10:44:28;;;;;;;24.80;3.40;;;;;;;10.86;40.39;102063.66;4969577;28;98120;-75
2022/01/28 10:46:59;;;;;;;23.20;4.25;;;;;;;10.88;39.81;102061.88;4970390;28;96845;-75
2022/01/28 10:49:33;;;;;;;25.15;3.53;;;;;;;10.38;40.75;102051.16;4966663;28;99302;-75
2022/01/28 10:52:08;;;;;;;23.13;3.20;;;;;;;10.98;40.24;102056.41;4967096;28;98694;-76
2022/01/28 10:54:37;;;;;;;26.15;4.03;;;;;;;10.82;38.95;102059.31;4969494;28;97991;-76
2022/01/28 10:57:05;;;;;;;22.23;3.15;;;;;;;10.70;40.49;102071.81;4967215;28;99550;-73
2022/01/28 10:59:33;;;;;;;25.55;4.35;;;;;;;10.96;40.00;102062.63;4968995;28;98917;-73
2022/01/28 11:02:00;;;;;;;35.00;3.45;;;;;;;10.42;40.97;102062.56;4968409;28;98939;-73
2022/01/28 11:04:27;;;;;;;26.52;3.92;;;;;;;10.82;41.51;102069.91;4970028;28;97476;-72
2022/01/28 11:06:57;;;;;;;36.28;4.78;;;;;;;10.88;40.98;102077.75;4969615;28;96898;-73
2022/01/28 11:09:24;;;;;;;25.05;3.60;;;;;;;10.60;40.52;102062.28;4968116;28;101431;-75
2022/01/28 11:11:54;;;;;;;20.92;3.40;;;;;;;10.95;40.63;102066.16;4965690;28;99238;-74
2022/01/28 11:14:21;;;;;;;22.33;3.45;;;;;;;10.44;41.20;102067.81;4969395;28;97072;-73
2022/01/28 11:16:48;;;;;;;33.10;4.35;;;;;;;10.60;40.83;102079.91;4970942;28;98848;-73
2022/01/28 11:19:16;;;;;;;27.08;3.05;;;;;;;10.85;40.63;102078.66;4969679;28;99051;-73
2022/01/28 11:22:00;;;;;;;21.15;3.55;;;;;;;10.94;40.30;102082.94;4966271;28;101552;-74
2022/01/28 11:24:42;;;;;;;28.23;3.47;;;;;;;11.38;38.83;102088.34;4971890;28;97710;-72
2022/01/28 11:27:13;;;;;;;20.73;3.50;;;;;;;10.87;40.83;102094.50;4969814;28;96838;-73
2022/01/28 11:29:40;;;;;;;20.17;3.03;;;;;;;11.19;39.40;102102.78;4965996;28;99153;-73
2022/01/28 11:32:14;;;;;;;26.92;3.63;;;;;;;10.50;41.18;102131.16;4969370;28;98883;-74
2022/01/28 11:34:58;;;;;;;29.98;3.70;;;;;;;10.41;42.16;102126.88;4970949;28;97433;-73
2022/01/28 11:37:28;;;;;;;21.83;3.33;;;;;;;10.48;42.36;102131.19;4963189;28;98185;-75
2022/01/28 11:39:55;;;;;;;14.80;2.70;;;;;;;10.46;41.26;102140.88;4966859;28;99043;-75
2022/01/28 11:42:29;;;;;;;20.55;3.20;;;;;;;9.88;44.07;102145.94;4967565;28;99905;-74
2022/01/28 11:44:56;;;;;;;19.30;4.03;;;;;;;9.86;43.32;102145.09;4970571;28;97090;-75
2022/01/28 11:47:26;;;;;;;19.48;3.38;;;;;;;10.42;42.14;102152.41;4964086;28;97028;-75
2022/01/28 11:49:57;;;;;;;32.42;3.47;;;;;;;10.97;41.15;102149.84;4969459;28;101853;-76
2022/01/28 11:52:27;;;;;;;24.17;3.58;;;;;;;11.12;40.50;102156.69;4964431;28;99569;-75
2022/01/28 11:54:57;;;;;;;25.10;3.10;;;;;;;11.23;39.97;102157.41;4966901;28;96818;-75
2022/01/28 11:57:27;;;;;;;18.65;3.17;;;;;;;11.36;39.81;102156.28;4966086;28;96915;-76
2022/01/28 12:00:22;;;;;;;21.00;3.33;;;;;;;11.73;39.40;102153.03;4969322;28;99011;-76
2022/01/28 12:02:49;;;;;;;17.00;2.60;;;;;;;11.61;39.28;102161.19;4971335;28;99407;-74
2022/01/28 12:05:44;;;;;;;27.27;3.67;;;;;;;10.45;41.27;102155.00;4964811;28;97249;-76
2022/01/28 12:08:11;;;;;;;21.05;3.65;;;;;;;10.46;40.88;102154.09;4971522;28;96756;-75
2022/01/28 12:10:42;;;;;;;27.17;3.67;;;;;;;11.10;40.75;102150.53;4974554;28;99361;-76
2022/01/28 12:13:13;;;;;;;17.77;3.60;;;;;;;11.42;39.80;102155.34;4966319;28;98840;-75
2022/01/28 12:16:03;;;;;;;18.63;3.30;;;;;;;11.26;40.34;102152.06;4968747;28;97030;-75